Аэропорт: Мурманск. Мурманск

ICAO: ULMM

METAR:
2020-08-09 22:30:00
ULMM 092230Z 01004MPS 9999 -SHRA SCT007 BKN025CB 09/09 Q1016 R31/290253 TEMPO 1000 SHRA RMK OBST OBSC QFE755
METAR:
2020-08-09 19:54:00
TAF ULMM 091954Z 0921/1021 36003MPS 3100 -SHRA SCT006 BKN011CB TEMPO 0921/1008 02005G10MPS 1000 SHRA BR BKN004 BKN011CB BECMG 1008/1009 6000 -SHRA BKN016CB TEMPO 1009/1021 34005G10MPS 3100 -SHRA BKN011 BKN016CB